createdAt,value
2022-09-01T00:00:15.167Z,10.20
2022-09-01T00:02:45.683Z,10.68
2022-09-01T00:05:14.379Z,10.38
2022-09-01T00:07:43.065Z,12.43
2022-09-01T00:10:11.776Z,8.82
2022-09-01T00:12:40.820Z,10.25
2022-09-01T00:15:12.546Z,14.30
2022-09-01T00:17:41.164Z,11.95
2022-09-01T00:20:13.430Z,11.68
2022-09-01T00:22:43.535Z,9.80
2022-09-01T00:25:11.982Z,11.07
2022-09-01T00:27:40.280Z,11.27
2022-09-01T00:30:10.520Z,8.93
2022-09-01T00:32:38.893Z,10.85
2022-09-01T00:35:08.778Z,13.45
2022-09-01T00:37:38.438Z,10.30
2022-09-01T00:40:10.552Z,10.57
2022-09-01T00:42:39.824Z,13.23
2022-09-01T00:45:11.367Z,13.65
2022-09-01T00:47:40.132Z,11.45
2022-09-01T00:50:11.529Z,11.48
2022-09-01T00:52:46.708Z,11.27
2022-09-01T00:55:22.668Z,10.88
2022-09-01T00:57:51.419Z,12.23
2022-09-01T01:00:23.936Z,10.85
2022-09-01T01:02:56.332Z,12.57
2022-09-01T01:05:28.436Z,10.95
2022-09-01T01:07:59.206Z,11.43
2022-09-01T01:10:29.058Z,10.77
2022-09-01T01:12:57.392Z,10.13
2022-09-01T01:15:25.905Z,10.05
2022-09-01T01:17:54.317Z,10.32
2022-09-01T01:20:46.447Z,10.07
2022-09-01T01:23:22.814Z,10.05
2022-09-01T01:25:55.955Z,11.57
2022-09-01T01:28:28.014Z,10.15
2022-09-01T01:31:04.922Z,11.00
2022-09-01T01:33:42.815Z,11.77
2022-09-01T01:36:16.195Z,11.70
2022-09-01T01:38:49.038Z,11.13
2022-09-01T01:41:20.511Z,12.43
2022-09-01T01:43:51.076Z,10.48
2022-09-01T01:46:22.807Z,11.57
2022-09-01T01:48:52.467Z,10.30
2022-09-01T01:51:25.009Z,13.75
2022-09-01T01:53:55.325Z,9.90
2022-09-01T01:56:26.131Z,9.65
2022-09-01T01:58:56.512Z,10.57
2022-09-01T02:01:28.879Z,10.90
2022-09-01T02:03:59.186Z,8.82
2022-09-01T02:06:30.054Z,10.48
2022-09-01T02:09:03.984Z,10.25
2022-09-01T02:11:37.834Z,10.63
2022-09-01T02:14:10.225Z,10.75
2022-09-01T02:16:39.057Z,10.23
2022-09-01T02:19:12.192Z,10.57
2022-09-01T02:21:44.590Z,10.15
2022-09-01T02:24:12.985Z,11.75
2022-09-01T02:26:48.965Z,13.10
2022-09-01T02:29:23.892Z,10.60
2022-09-01T02:31:54.964Z,10.50
2022-09-01T02:34:27.708Z,11.90
2022-09-01T02:36:58.899Z,12.60
2022-09-01T02:39:32.711Z,10.13
2022-09-01T02:42:02.810Z,11.25
2022-09-01T02:44:32.737Z,12.65
2022-09-01T02:47:02.069Z,10.73
2022-09-01T02:49:31.455Z,11.95
2022-09-01T02:52:02.742Z,11.73
2022-09-01T02:54:33.504Z,10.95
2022-09-01T02:57:04.076Z,11.57
2022-09-01T02:59:34.706Z,11.57
2022-09-01T03:02:03.068Z,10.38
2022-09-01T03:04:35.104Z,10.80
2022-09-01T03:07:04.501Z,11.23
2022-09-01T03:09:35.168Z,12.05
2022-09-01T03:12:07.206Z,10.95
2022-09-01T03:14:36.718Z,11.05
2022-09-01T03:17:05.291Z,10.43
2022-09-01T03:19:44.408Z,10.98
2022-09-01T03:22:13.701Z,10.43
2022-09-01T03:24:42.848Z,12.77
2022-09-01T03:27:12.525Z,10.00
2022-09-01T03:29:41.256Z,11.35
2022-09-01T03:32:10.129Z,10.80
2022-09-01T03:34:39.654Z,8.75
2022-09-01T03:37:09.855Z,12.02
2022-09-01T03:39:38.465Z,10.40
2022-09-01T03:42:10.879Z,11.57
2022-09-01T03:44:42.031Z,9.00
2022-09-01T03:47:15.263Z,12.43
2022-09-01T03:49:45.498Z,10.57
2022-09-01T03:52:14.740Z,10.73
2022-09-01T03:54:43.875Z,12.90
2022-09-01T03:57:13.920Z,10.02
2022-09-01T03:59:44.881Z,9.90
2022-09-01T04:02:14.667Z,10.93
2022-09-01T04:04:43.394Z,11.77
2022-09-01T04:07:19.281Z,13.27
2022-09-01T04:09:48.179Z,10.70
2022-09-01T04:12:17.242Z,12.45
2022-09-01T04:14:52.058Z,11.52
2022-09-01T04:17:38.297Z,12.48
2022-09-01T04:20:09.443Z,11.80
2022-09-01T04:22:38.386Z,11.55
2022-09-01T04:25:08.982Z,10.15
2022-09-01T04:27:40.417Z,12.60
2022-09-01T04:30:12.396Z,13.05
2022-09-01T04:32:46.900Z,12.50
2022-09-01T04:35:17.144Z,11.95
2022-09-01T04:37:48.507Z,12.13
2022-09-01T04:40:18.760Z,10.85
2022-09-01T04:42:48.110Z,10.35
2022-09-01T04:45:22.414Z,11.93
2022-09-01T04:47:51.231Z,12.70
2022-09-01T04:50:22.178Z,10.48
2022-09-01T04:53:12.077Z,10.38
2022-09-01T04:55:44.387Z,11.80
2022-09-01T04:58:18.706Z,12.77
2022-09-01T05:00:52.239Z,10.38
2022-09-01T05:03:24.515Z,12.45
2022-09-01T05:06:00.220Z,12.20
2022-09-01T05:08:32.758Z,13.43
2022-09-01T05:11:08.118Z,11.02
2022-09-01T05:13:43.558Z,10.45
2022-09-01T05:16:15.854Z,13.18
2022-09-01T05:18:50.141Z,11.88
2022-09-01T05:21:24.612Z,13.70
2022-09-01T05:23:54.281Z,11.80
2022-09-01T05:26:28.435Z,14.60
2022-09-01T05:29:01.471Z,15.00
2022-09-01T05:31:38.096Z,13.73
2022-09-01T05:34:08.069Z,12.75
2022-09-01T05:36:37.672Z,14.60
2022-09-01T05:39:09.772Z,14.82
2022-09-01T05:41:39.915Z,14.30
2022-09-01T05:44:11.335Z,14.93
2022-09-01T05:46:42.620Z,15.48
2022-09-01T05:49:16.268Z,16.45
2022-09-01T05:51:50.985Z,16.67
2022-09-01T05:54:27.407Z,16.38
2022-09-01T05:57:12.780Z,15.55
2022-09-01T05:59:53.562Z,14.82
2022-09-01T06:02:26.247Z,15.18
2022-09-01T06:04:57.594Z,14.93
2022-09-01T06:07:31.844Z,12.85
2022-09-01T06:10:02.353Z,14.00
2022-09-01T06:12:30.792Z,14.23
2022-09-01T06:14:59.369Z,13.98
2022-09-01T06:17:30.876Z,14.05
2022-09-01T06:20:10.701Z,15.85
2022-09-01T06:22:41.359Z,14.10
2022-09-01T06:25:11.408Z,13.05
2022-09-01T06:27:44.776Z,12.02
2022-09-01T06:30:20.137Z,13.18
2022-09-01T06:32:57.592Z,12.20
2022-09-01T06:35:29.909Z,12.77
2022-09-01T06:38:01.928Z,11.65
2022-09-01T06:41:04.189Z,13.85
2022-09-01T06:43:33.532Z,13.20
2022-09-01T06:46:03.592Z,13.30
2022-09-01T06:48:34.158Z,11.32
2022-09-01T06:51:15.970Z,10.35
2022-09-01T06:53:56.484Z,12.30
2022-09-01T06:56:32.262Z,13.63
2022-09-01T06:59:19.321Z,12.15
2022-09-01T07:01:52.929Z,10.30
2022-09-01T07:04:31.512Z,9.90
2022-09-01T07:10:21.411Z,11.90
2022-09-01T07:13:08.950Z,11.10
2022-09-01T07:18:33.936Z,10.20
2022-09-01T07:24:13.186Z,9.32
2022-09-01T07:26:55.449Z,8.90
2022-09-01T07:29:26.407Z,9.63
2022-09-01T07:34:47.743Z,8.52
2022-09-01T07:42:31.425Z,10.23
2022-09-01T07:43:32.643Z,8.13
2022-09-01T07:49:53.704Z,9.85
2022-09-01T07:52:07.445Z,7.43
2022-09-01T07:54:40.244Z,7.57
2022-09-01T07:57:08.586Z,9.43
2022-09-01T07:59:37.562Z,6.50
2022-09-01T08:02:19.610Z,6.90
2022-09-01T08:04:49.454Z,7.35
2022-09-01T08:07:20.555Z,6.60
2022-09-01T08:09:50.902Z,6.45
2022-09-01T08:12:19.848Z,6.00
2022-09-01T08:17:51.413Z,6.32
2022-09-01T08:20:20.748Z,5.93
2022-09-01T08:23:02.044Z,6.13
2022-09-01T08:25:38.405Z,6.22
2022-09-01T08:28:07.869Z,5.20
2022-09-01T08:30:39.714Z,5.32
2022-09-01T08:33:11.994Z,5.60
2022-09-01T08:35:48.684Z,5.40
2022-09-01T08:38:18.214Z,6.00
2022-09-01T08:40:57.472Z,4.70
2022-09-01T08:43:51.527Z,5.32
2022-09-01T08:46:34.023Z,5.82
2022-09-01T08:49:24.646Z,6.15
2022-09-01T08:52:25.308Z,5.28
2022-09-01T08:55:03.565Z,5.25
2022-09-01T08:57:37.394Z,6.13
2022-09-01T09:00:25.342Z,7.70
2022-09-01T09:03:13.437Z,4.35
2022-09-01T09:06:04.191Z,4.70
2022-09-01T09:08:56.721Z,6.28
2022-09-01T09:11:56.800Z,5.78
2022-09-01T09:14:56.337Z,4.95
2022-09-01T09:17:31.770Z,6.70
2022-09-01T09:20:02.298Z,7.47
2022-09-01T09:22:31.812Z,8.05
2022-09-01T09:25:08.858Z,6.70
2022-09-01T09:27:41.252Z,6.15
2022-09-01T09:30:17.595Z,5.80
2022-09-01T09:35:47.113Z,8.23
2022-09-01T09:38:28.925Z,6.32
2022-09-01T09:41:17.322Z,4.53
2022-09-01T09:43:59.220Z,5.55
2022-09-01T09:46:37.689Z,5.35
2022-09-01T09:49:34.240Z,5.80
2022-09-01T09:52:19.067Z,6.03
2022-09-01T09:55:04.620Z,5.75
2022-09-01T09:57:41.591Z,8.43
2022-09-01T10:00:24.591Z,5.93
2022-09-01T10:03:01.396Z,5.90
2022-09-01T10:05:43.260Z,5.90
2022-09-01T10:08:16.528Z,5.50
2022-09-01T10:10:58.409Z,5.20
2022-09-01T10:13:32.679Z,6.47
2022-09-01T10:16:05.844Z,8.05
2022-09-01T10:18:42.165Z,5.10
2022-09-01T10:21:16.454Z,5.03
2022-09-01T10:23:45.117Z,4.93
2022-09-01T10:26:23.683Z,6.00
2022-09-01T10:28:59.901Z,5.72
2022-09-01T10:31:32.738Z,5.97
2022-09-01T10:34:06.444Z,6.60
2022-09-01T10:36:37.771Z,5.82
2022-09-01T10:39:12.448Z,5.38
2022-09-01T10:41:59.844Z,4.97
2022-09-01T10:44:34.450Z,4.88
2022-09-01T10:47:14.748Z,4.63
2022-09-01T10:50:07.666Z,4.88
2022-09-01T10:53:04.983Z,4.93
2022-09-01T10:55:48.262Z,4.38
2022-09-01T11:02:25.992Z,6.30
2022-09-01T11:05:20.271Z,5.45
2022-09-01T11:08:15.022Z,6.28
2022-09-01T11:10:56.152Z,6.25
2022-09-01T11:13:37.065Z,5.80
2022-09-01T11:16:51.686Z,5.18
2022-09-01T11:19:38.804Z,6.22
2022-09-01T11:22:44.591Z,5.78
2022-09-01T11:25:40.222Z,6.03
2022-09-01T11:28:43.606Z,5.05
2022-09-01T11:31:39.907Z,5.45
2022-09-01T11:34:20.100Z,5.15
2022-09-01T11:37:01.525Z,6.38
2022-09-01T11:39:43.761Z,5.20
2022-09-01T11:42:20.057Z,5.00
2022-09-01T11:44:55.002Z,6.85
2022-09-01T11:47:28.859Z,4.53
2022-09-01T11:50:00.569Z,4.40
2022-09-01T11:52:35.939Z,4.60
2022-09-01T11:55:07.987Z,4.15
2022-09-01T11:57:40.190Z,5.57
2022-09-01T12:00:13.943Z,4.22
2022-09-01T12:02:48.867Z,4.93
2022-09-01T12:05:38.787Z,4.55
2022-09-01T12:08:18.326Z,4.00
2022-09-01T12:11:06.464Z,4.82
2022-09-01T12:13:35.934Z,5.30
2022-09-01T12:16:18.001Z,4.35
2022-09-01T12:18:51.428Z,4.47
2022-09-01T12:21:26.097Z,3.90
2022-09-01T12:23:56.247Z,4.15
2022-09-01T12:26:29.196Z,5.57
2022-09-01T12:28:58.626Z,4.00
2022-09-01T12:31:28.121Z,6.50
2022-09-01T12:33:57.904Z,5.30
2022-09-01T12:36:29.669Z,5.72
2022-09-01T12:39:18.914Z,4.10
2022-09-01T12:42:04.294Z,3.92
2022-09-01T12:44:36.288Z,4.03
2022-09-01T12:47:08.561Z,4.63
2022-09-01T12:49:50.384Z,3.88
2022-09-01T12:52:26.539Z,3.20
2022-09-01T12:58:12.215Z,6.60
2022-09-01T13:00:58.917Z,3.17
2022-09-01T13:03:29.530Z,4.45
2022-09-01T13:06:00.222Z,4.68
2022-09-01T13:08:33.187Z,3.53
2022-09-01T13:11:07.393Z,2.75
2022-09-01T13:13:37.243Z,3.30
2022-09-01T13:16:12.694Z,3.20
2022-09-01T13:21:34.594Z,3.85
2022-09-01T13:24:05.049Z,2.83
2022-09-01T13:26:33.576Z,2.95
2022-09-01T13:29:03.241Z,3.20
2022-09-01T13:31:32.142Z,3.40
2022-09-01T13:34:22.346Z,4.40
2022-09-01T13:36:52.307Z,3.00
2022-09-01T13:39:22.985Z,2.20
2022-09-01T13:41:51.745Z,7.30
2022-09-01T13:44:21.539Z,2.17
2022-09-01T13:47:00.555Z,4.60
2022-09-01T13:50:05.865Z,2.63
2022-09-01T13:52:17.508Z,3.03
2022-09-01T13:54:47.758Z,3.28
2022-09-01T13:57:16.808Z,3.45
2022-09-01T13:59:46.724Z,3.10
2022-09-01T14:02:15.057Z,2.88
2022-09-01T14:04:43.443Z,3.72
2022-09-01T14:07:11.820Z,2.42
2022-09-01T14:09:40.319Z,2.75
2022-09-01T14:12:10.112Z,2.20
2022-09-01T14:17:28.251Z,2.50
2022-09-01T14:19:57.384Z,3.67
2022-09-01T14:22:25.693Z,3.67
2022-09-01T14:24:54.094Z,2.78
2022-09-01T14:27:22.580Z,4.13
2022-09-01T14:29:54.859Z,4.15
2022-09-01T14:32:27.052Z,2.10
2022-09-01T14:34:58.112Z,2.28
2022-09-01T14:37:26.648Z,1.67
2022-09-01T14:39:57.490Z,3.70
2022-09-01T14:42:28.752Z,2.55
2022-09-01T14:44:57.424Z,2.67
2022-09-01T14:47:26.012Z,2.22
2022-09-01T14:49:56.075Z,2.45
2022-09-01T14:52:24.712Z,3.20
2022-09-01T14:54:53.097Z,3.95
2022-09-01T14:57:31.376Z,2.65
2022-09-01T15:00:11.838Z,2.72
2022-09-01T15:02:41.779Z,1.90
2022-09-01T15:05:13.627Z,1.98
2022-09-01T15:07:43.187Z,2.30
2022-09-01T15:10:16.172Z,2.17
2022-09-01T15:12:56.380Z,3.22
2022-09-01T15:15:26.141Z,3.67
2022-09-01T15:17:55.073Z,2.25
2022-09-01T15:20:43.368Z,3.60
2022-09-01T15:23:12.808Z,2.80
2022-09-01T15:25:41.295Z,3.20
2022-09-01T15:28:10.058Z,2.70
2022-09-01T15:30:39.872Z,2.55
2022-09-01T15:33:14.783Z,2.67
2022-09-01T15:35:46.197Z,3.05
2022-09-01T15:38:18.042Z,1.92
2022-09-01T15:40:55.256Z,2.30
2022-09-01T15:43:29.414Z,2.38
2022-09-01T15:45:59.297Z,2.50
2022-09-01T15:48:29.836Z,2.05
2022-09-01T15:51:31.001Z,3.72
2022-09-01T15:54:03.384Z,2.65
2022-09-01T15:56:32.652Z,2.92
2022-09-01T15:59:03.528Z,2.38
2022-09-01T16:01:35.604Z,4.88
2022-09-01T16:04:05.232Z,3.60
2022-09-01T16:06:36.793Z,3.30
2022-09-01T16:09:06.130Z,4.82
2022-09-01T16:11:36.238Z,2.95
2022-09-01T16:14:06.034Z,4.90
2022-09-01T16:16:54.459Z,3.78
2022-09-01T16:19:39.514Z,2.90
2022-09-01T16:22:22.288Z,2.45
2022-09-01T16:24:54.906Z,3.83
2022-09-01T16:27:32.061Z,2.17
2022-09-01T16:30:08.052Z,2.63
2022-09-01T16:32:36.802Z,2.42
2022-09-01T16:35:07.003Z,3.13
2022-09-01T16:37:54.222Z,2.13
2022-09-01T16:40:45.503Z,3.30
2022-09-01T16:43:30.762Z,2.35
2022-09-01T16:46:09.318Z,1.85
2022-09-01T16:48:48.095Z,4.07
2022-09-01T16:51:28.344Z,3.40
2022-09-01T16:54:24.901Z,2.58
2022-09-01T16:57:06.712Z,2.00
2022-09-01T16:59:51.963Z,2.10
2022-09-01T17:02:40.617Z,2.47
2022-09-01T17:05:26.567Z,4.50
2022-09-01T17:08:12.775Z,4.07
2022-09-01T17:10:54.118Z,1.80
2022-09-01T17:13:38.417Z,2.28
2022-09-01T17:16:12.830Z,2.70
2022-09-01T17:18:45.328Z,1.73
2022-09-01T17:21:21.784Z,2.08
2022-09-01T17:23:56.631Z,2.47
2022-09-01T17:26:30.321Z,2.38
2022-09-01T17:29:07.333Z,2.67
2022-09-01T17:31:52.039Z,2.28
2022-09-01T17:34:38.757Z,3.17
2022-09-01T17:37:23.008Z,4.63
2022-09-01T17:40:11.598Z,2.50
2022-09-01T17:42:55.556Z,2.50
2022-09-01T17:45:31.390Z,2.70
2022-09-01T17:48:10.603Z,3.85
2022-09-01T17:51:04.465Z,4.45
2022-09-01T17:53:50.872Z,5.32
2022-09-01T17:56:41.739Z,3.63
2022-09-01T17:59:23.487Z,2.80
2022-09-01T18:02:20.900Z,3.20
2022-09-01T18:05:13.001Z,3.15
2022-09-01T18:08:05.235Z,3.83
2022-09-01T18:10:41.120Z,4.13
2022-09-01T18:13:25.906Z,2.38
2022-09-01T18:16:13.742Z,4.53
2022-09-01T18:18:45.925Z,2.85
2022-09-01T18:21:20.275Z,4.43
2022-09-01T18:23:53.847Z,3.78
2022-09-01T18:26:29.709Z,4.45
2022-09-01T18:28:59.116Z,6.40
2022-09-01T18:32:04.680Z,6.65
2022-09-01T18:34:59.191Z,5.05
2022-09-01T18:37:42.617Z,6.93
2022-09-01T18:40:19.615Z,3.15
2022-09-01T18:43:01.621Z,4.72
2022-09-01T18:45:41.529Z,2.97
2022-09-01T18:48:32.139Z,4.72
2022-09-01T18:51:08.163Z,3.83
2022-09-01T18:53:48.530Z,5.30
2022-09-01T18:56:31.481Z,4.22
2022-09-01T18:59:36.707Z,4.90
2022-09-01T19:02:24.667Z,3.47
2022-09-01T19:05:00.689Z,3.38
2022-09-01T19:07:36.910Z,3.22
2022-09-01T19:10:18.316Z,5.25
2022-09-01T19:12:57.721Z,3.00
2022-09-01T19:15:35.773Z,5.43
2022-09-01T19:18:18.936Z,3.10
2022-09-01T19:20:56.307Z,3.13
2022-09-01T19:23:40.898Z,6.03
2022-09-01T19:26:18.411Z,3.88
2022-09-01T19:28:51.586Z,4.68
2022-09-01T19:31:26.887Z,6.50
2022-09-01T19:33:58.381Z,3.30
2022-09-01T19:36:40.125Z,3.72
2022-09-01T19:39:12.428Z,4.70
2022-09-01T19:41:50.077Z,6.15
2022-09-01T19:44:30.338Z,4.28
2022-09-01T19:47:08.979Z,5.55
2022-09-01T19:49:45.817Z,4.00
2022-09-01T19:52:32.365Z,4.28
2022-09-01T19:55:07.825Z,3.70
2022-09-01T19:57:45.061Z,6.20
2022-09-01T20:00:19.576Z,4.15
2022-09-01T20:02:56.463Z,5.13
2022-09-01T20:05:32.651Z,7.30
2022-09-01T20:08:09.169Z,4.38
2022-09-01T20:10:58.905Z,4.68
2022-09-01T20:14:13.003Z,3.65
2022-09-01T20:16:48.395Z,3.78
2022-09-01T20:19:28.683Z,3.90
2022-09-01T20:22:09.982Z,3.92
2022-09-01T20:24:41.035Z,3.70
2022-09-01T20:27:32.205Z,4.68
2022-09-01T20:30:07.242Z,5.70
2022-09-01T20:35:18.465Z,3.67
2022-09-01T20:37:53.028Z,4.15
2022-09-01T20:40:27.269Z,3.90
2022-09-01T20:43:18.585Z,4.20
2022-09-01T20:45:47.355Z,3.92
2022-09-01T20:48:20.140Z,5.57
2022-09-01T20:50:58.977Z,4.70
2022-09-01T20:53:40.410Z,4.18
2022-09-01T20:56:22.767Z,4.80
2022-09-01T20:59:01.667Z,4.85
2022-09-01T21:01:41.794Z,5.68
2022-09-01T21:04:20.288Z,5.30
2022-09-01T21:06:58.847Z,6.28
2022-09-01T21:09:44.292Z,4.97
2022-09-01T21:12:27.462Z,4.47
2022-09-01T21:15:10.931Z,5.95
2022-09-01T21:17:51.006Z,4.72
2022-09-01T21:20:31.012Z,6.55
2022-09-01T21:22:59.562Z,3.78
2022-09-01T21:25:28.404Z,4.63
2022-09-01T21:28:02.225Z,6.22
2022-09-01T21:30:34.890Z,5.80
2022-09-01T21:33:04.513Z,4.45
2022-09-01T21:35:33.337Z,8.13
2022-09-01T21:38:01.940Z,4.43
2022-09-01T21:40:30.965Z,5.18
2022-09-01T21:43:06.330Z,4.50
2022-09-01T21:45:37.587Z,4.55
2022-09-01T21:48:07.161Z,5.50
2022-09-01T21:50:36.139Z,5.10
2022-09-01T21:53:04.586Z,5.32
2022-09-01T21:55:33.805Z,7.80
2022-09-01T21:58:03.556Z,4.35
2022-09-01T22:00:36.590Z,5.30
2022-09-01T22:03:05.165Z,4.95
2022-09-01T22:05:35.814Z,3.85
2022-09-01T22:08:04.688Z,5.90
2022-09-01T22:10:33.443Z,4.45
2022-09-01T22:13:04.505Z,6.30
2022-09-01T22:15:32.929Z,6.38
2022-09-01T22:18:01.206Z,5.75
2022-09-01T22:20:31.976Z,6.13
2022-09-01T22:23:02.027Z,5.85
2022-09-01T22:25:33.452Z,5.40
2022-09-01T22:28:05.905Z,4.13
2022-09-01T22:30:35.296Z,3.88
2022-09-01T22:33:07.614Z,3.88
2022-09-01T22:35:35.907Z,5.80
2022-09-01T22:38:04.262Z,4.45
2022-09-01T22:40:32.656Z,5.22
2022-09-01T22:43:01.109Z,7.35
2022-09-01T22:45:30.999Z,5.35
2022-09-01T22:47:59.343Z,3.80
2022-09-01T22:50:27.670Z,5.47
2022-09-01T22:52:55.992Z,5.82
2022-09-01T22:55:25.677Z,4.57
2022-09-01T22:57:53.949Z,6.63
2022-09-01T23:00:22.615Z,3.83
2022-09-01T23:02:52.612Z,4.78
2022-09-01T23:05:22.524Z,6.18
2022-09-01T23:07:50.814Z,9.45
2022-09-01T23:10:19.244Z,4.35
2022-09-01T23:12:47.728Z,5.35
2022-09-01T23:15:16.338Z,3.60
2022-09-01T23:17:44.675Z,4.28
2022-09-01T23:20:15.473Z,3.60
2022-09-01T23:22:45.983Z,6.53
2022-09-01T23:25:17.012Z,3.95
2022-09-01T23:27:45.392Z,3.92
2022-09-01T23:30:16.412Z,4.45
2022-09-01T23:32:44.720Z,4.00
2022-09-01T23:35:14.738Z,5.20
2022-09-01T23:37:44.813Z,3.45
2022-09-01T23:40:14.240Z,3.03
2022-09-01T23:42:42.591Z,6.25
2022-09-01T23:45:12.367Z,4.07
2022-09-01T23:47:41.298Z,4.60
2022-09-01T23:50:10.866Z,5.95
2022-09-01T23:52:40.483Z,4.68
2022-09-01T23:55:10.177Z,4.05
2022-09-01T23:57:38.849Z,4.47
